Time,TemperatureF,DewpointF,PressureIn,WindDirection,WindDirectionDegrees,WindSpeedMPH,WindSpeedGustMPH,Humidity,HourlyPrecipIn,Conditions,Clouds,dailyrainin,SoftwareType,DateUTC
2013-05-29 00:01:00,66.0,60.0,30.18,ENE,59,0.0,0.0,81,0.00,CLR,,0.00,WeatherDisplay:10.37,2013-05-29 04:01:00,
2013-05-29 00:06:00,66.1,60.1,30.18,SE,131,2.3,2.3,81,0.00,CLR,,0.00,WeatherDisplay:10.37,2013-05-29 04:06:00,
2013-05-29 00:11:00,66.1,60.1,30.18,SSW,195,3.5,3.5,81,0.00,CLR,,0.00,WeatherDisplay:10.37,2013-05-29 04:11:00,
2013-05-29 00:16:00,66.2,60.2,30.18,SSW,194,0.0,0.0,81,0.00,CLR,,0.00,WeatherDisplay:10.37,2013-05-29 04:16:00,
2013-05-29 00:21:00,66.2,60.2,30.18,SSW,194,0.0,0.0,81,0.00,CLR,,0.00,WeatherDisplay:10.37,2013-05-29 04:21:00,
2013-05-29 00:26:00,66.2,60.2,30.18,SSE,154,1.2,1.2,81,0.00,CLR,,0.00,WeatherDisplay:10.37,2013-05-29 04:26:00,
2013-05-29 00:31:00,66.2,60.5,30.18,South,173,0.0,0.1,82,0.00,CLR,,0.00,WeatherDisplay:10.37,2013-05-29 04:31:00,
2013-05-29 00:36:00,66.1,60.1,30.17,South,173,0.0,0.0,81,0.00,CLR,,0.00,WeatherDisplay:10.37,2013-05-29 04:36:00,
2013-05-29 00:41:00,66.1,60.4,30.18,South,173,0.0,0.0,82,0.00,CLR,,0.00,WeatherDisplay:10.37,2013-05-29 04:41:00,
2013-05-29 00:46:00,65.9,60.2,30.18,SSE,152,0.0,0.0,82,0.00,CLR,,0.00,WeatherDisplay:10.37,2013-05-29 04:46:00,
2013-05-29 00:51:00,65.8,60.2,30.18,ESE,123,1.2,0.0,82,0.00,CLR,,0.00,WeatherDisplay:10.37,2013-05-29 04:51:00,
2013-05-29 00:56:00,65.7,60.1,30.18,ESE,123,0.0,0.0,82,0.00,CLR,,0.00,WeatherDisplay:10.37,2013-05-29 04:56:00,
2013-05-29 01:01:00,65.6,60.3,30.18,ESE,123,0.0,0.0,83,0.00,CLR,,0.00,WeatherDisplay:10.37,2013-05-29 05:01:00,
2013-05-29 01:06:00,65.5,60.2,30.18,ESE,123,0.0,0.0,83,0.00,CLR,,0.00,WeatherDisplay:10.37,2013-05-29 05:06:00,
2013-05-29 01:11:00,65.4,60.1,30.18,ESE,123,0.0,0.0,83,0.00,CLR,,0.00,WeatherDisplay:10.37,2013-05-29 05:11:00,
2013-05-29 01:16:00,65.3,60.0,30.18,ESE,123,0.0,0.0,83,0.00,CLR,,0.00,WeatherDisplay:10.37,2013-05-29 05:16:00,
2013-05-29 01:21:00,65.1,60.1,30.18,ESE,123,1.1,0.0,84,0.00,CLR,,0.00,WeatherDisplay:10.37,2013-05-29 05:21:00,
2013-05-29 01:26:00,65.0,60.4,30.17,ESE,123,0.0,0.0,85,0.00,CLR,,0.00,WeatherDisplay:10.37,2013-05-29 05:26:00,
2013-05-29 01:31:00,64.9,60.3,30.17,ESE,123,0.0,0.0,85,0.00,CLR,,0.00,WeatherDisplay:10.37,2013-05-29 05:31:00,
2013-05-29 01:36:00,64.8,60.2,30.17,NNE,19,5.8,5.8,85,0.00,CLR,,0.00,WeatherDisplay:10.37,2013-05-29 05:36:00,
2013-05-29 01:41:00,64.6,60.0,30.17,NNE,25,0.0,0.0,85,0.00,CLR,,0.00,WeatherDisplay:10.37,2013-05-29 05:41:00,
2013-05-29 01:46:00,64.4,59.8,30.17,NNE,25,1.2,0.0,85,0.00,CLR,,0.00,WeatherDisplay:10.37,2013-05-29 05:46:00,
2013-05-29 01:51:00,64.3,60.0,30.17,NE,45,1.2,0.0,86,0.00,CLR,,0.00,WeatherDisplay:10.37,2013-05-29 05:51:00,
2013-05-29 01:56:00,64.1,59.5,30.17,ESE,103,1.2,0.0,85,0.00,CLR,,0.00,WeatherDisplay:10.37,2013-05-29 05:56:00,
2013-05-29 02:01:00,64.0,59.4,30.17,SSE,159,1.2,1.2,85,0.00,CLR,,0.00,WeatherDisplay:10.37,2013-05-29 06:01:00,
2013-05-29 02:06:00,64.0,60.1,30.17,South,182,0.0,0.0,87,0.00,CLR,,0.00,WeatherDisplay:10.37,2013-05-29 06:06:00,
2013-05-29 02:11:00,64.0,60.1,30.17,South,182,1.2,0.0,87,0.00,CLR,,0.00,WeatherDisplay:10.37,2013-05-29 06:11:00,
2013-05-29 02:16:00,64.0,59.7,30.17,South,182,0.0,0.0,86,0.00,CLR,,0.00,WeatherDisplay:10.37,2013-05-29 06:16:00,
2013-05-29 02:21:00,63.9,59.6,30.17,South,182,0.0,0.0,86,0.00,CLR,,0.00,WeatherDisplay:10.37,2013-05-29 06:21:00,
2013-05-29 02:26:00,63.7,59.8,30.16,South,182,1.2,0.0,87,0.00,CLR,,0.00,WeatherDisplay:10.37,2013-05-29 06:26:00,
2013-05-29 02:31:00,63.6,59.7,30.17,East,85,0.0,0.0,87,0.00,CLR,,0.00,WeatherDisplay:10.37,2013-05-29 06:31:00,
2013-05-29 02:36:00,63.5,59.6,30.17,East,85,0.0,0.0,87,0.00,CLR,,0.00,WeatherDisplay:10.37,2013-05-29 06:36:00,
2013-05-29 02:41:00,63.4,59.5,30.17,East,85,0.0,0.0,87,0.00,CLR,,0.00,WeatherDisplay:10.37,2013-05-29 06:41:00,
2013-05-29 02:46:00,63.3,59.7,30.17,East,85,0.0,0.0,88,0.00,CLR,,0.00,WeatherDisplay:10.37,2013-05-29 06:46:00,
2013-05-29 02:51:00,63.3,59.7,30.17,East,85,0.0,0.0,88,0.00,CLR,,0.00,WeatherDisplay:10.37,2013-05-29 06:51:00,
2013-05-29 02:56:00,63.2,59.6,30.18,East,85,0.0,0.0,88,0.00,CLR,,0.00,WeatherDisplay:10.37,2013-05-29 06:56:00,
2013-05-29 03:01:00,63.2,59.6,30.18,East,85,0.0,0.0,88,0.00,CLR,,0.00,WeatherDisplay:10.37,2013-05-29 07:01:00,
2013-05-29 03:06:00,63.3,59.7,30.18,East,85,0.0,0.0,88,0.00,CLR,,0.00,WeatherDisplay:10.37,2013-05-29 07:06:00,
2013-05-29 03:11:00,63.3,59.7,30.18,East,85,0.0,0.0,88,0.00,CLR,,0.00,WeatherDisplay:10.37,2013-05-29 07:11:00,
2013-05-29 03:16:00,63.3,59.7,30.18,East,85,0.0,0.0,88,0.00,CLR,,0.00,WeatherDisplay:10.37,2013-05-29 07:16:00,
2013-05-29 03:21:00,63.4,59.8,30.19,East,85,0.0,0.0,88,0.00,CLR,,0.00,WeatherDisplay:10.37,2013-05-29 07:21:00,
2013-05-29 03:26:00,63.4,59.8,30.19,East,85,0.0,0.0,88,0.00,CLR,,0.00,WeatherDisplay:10.37,2013-05-29 07:26:00,
2013-05-29 03:31:00,63.4,59.8,30.19,East,85,0.0,0.0,88,0.00,CLR,,0.00,WeatherDisplay:10.37,2013-05-29 07:31:00,
2013-05-29 03:36:00,63.6,59.7,30.19,SE,146,1.2,0.0,87,0.00,CLR,,0.00,WeatherDisplay:10.37,2013-05-29 07:36:00,
2013-05-29 03:41:00,63.8,59.9,30.19,SE,146,0.0,0.0,87,0.00,CLR,,0.00,WeatherDisplay:10.37,2013-05-29 07:41:00,
2013-05-29 03:46:00,63.9,60.0,30.19,SE,146,0.0,0.0,87,0.00,CLR,,0.00,WeatherDisplay:10.37,2013-05-29 07:46:00,
2013-05-29 03:51:00,64.0,59.7,30.19,SE,146,0.0,0.0,86,0.00,CLR,,0.00,WeatherDisplay:10.37,2013-05-29 07:51:00,
2013-05-29 03:56:00,64.1,59.8,30.19,SSE,158,4.6,4.6,86,0.00,CLR,,0.00,WeatherDisplay:10.37,2013-05-29 07:56:00,
2013-05-29 04:01:00,64.3,60.0,30.19,SE,141,4.4,4.4,86,0.00,CLR,,0.00,WeatherDisplay:10.37,2013-05-29 08:01:00,
2013-05-29 04:06:00,64.4,60.1,30.19,SE,144,0.0,0.0,86,0.00,CLR,,0.00,WeatherDisplay:10.37,2013-05-29 08:06:00,
2013-05-29 04:11:00,64.5,60.2,30.19,SE,144,0.0,0.0,86,0.00,CLR,,0.00,WeatherDisplay:10.37,2013-05-29 08:11:00,
2013-05-29 04:16:00,64.6,60.0,30.19,SSE,152,2.3,0.0,85,0.00,CLR,,0.00,WeatherDisplay:10.37,2013-05-29 08:16:00,
2013-05-29 04:21:00,64.6,60.3,30.20,SSE,152,0.0,0.0,86,0.00,CLR,,0.00,WeatherDisplay:10.37,2013-05-29 08:21:00,
2013-05-29 04:26:00,64.5,59.9,30.19,SSE,152,0.0,0.0,85,0.00,CLR,,0.00,WeatherDisplay:10.37,2013-05-29 08:26:00,
2013-05-29 04:31:00,64.3,59.7,30.20,SSE,152,0.0,0.0,85,0.00,CLR,,0.00,WeatherDisplay:10.37,2013-05-29 08:31:00,
2013-05-29 04:36:00,64.2,59.9,30.20,SSE,152,0.0,0.0,86,0.00,CLR,,0.00,WeatherDisplay:10.37,2013-05-29 08:36:00,
2013-05-29 04:41:00,64.1,59.8,30.21,SSE,152,0.0,0.0,86,0.00,CLR,,0.00,WeatherDisplay:10.37,2013-05-29 08:41:00,
2013-05-29 04:46:00,64.0,59.7,30.20,SSE,152,0.0,0.0,86,0.00,CLR,,0.00,WeatherDisplay:10.37,2013-05-29 08:46:00,
2013-05-29 04:51:00,63.9,60.0,30.21,SSE,152,0.0,0.0,87,0.00,CLR,,0.00,WeatherDisplay:10.37,2013-05-29 08:51:00,
2013-05-29 04:56:00,63.8,59.9,30.20,SSE,152,0.0,0.0,87,0.00,CLR,,0.00,WeatherDisplay:10.37,2013-05-29 08:56:00,
2013-05-29 05:01:00,63.7,59.8,30.20,SSE,152,0.0,0.0,87,0.00,CLR,,0.00,WeatherDisplay:10.37,2013-05-29 09:01:00,
2013-05-29 05:06:00,63.4,59.5,30.21,SSE,152,0.0,0.0,87,0.00,CLR,,0.00,WeatherDisplay:10.37,2013-05-29 09:06:00,
2013-05-29 05:11:00,63.2,59.3,30.21,SSE,152,0.0,0.0,87,0.00,CLR,,0.00,WeatherDisplay:10.37,2013-05-29 09:11:00,
2013-05-29 05:16:00,62.9,59.0,30.20,SSE,152,0.0,0.0,87,0.00,CLR,,0.00,WeatherDisplay:10.37,2013-05-29 09:16:00,
2013-05-29 05:21:00,62.7,59.1,30.20,SSE,152,0.0,0.0,88,0.00,CLR,,0.00,WeatherDisplay:10.37,2013-05-29 09:21:00,
2013-05-29 05:26:00,62.6,59.3,30.21,SSE,152,0.0,0.0,89,0.00,CLR,,0.00,WeatherDisplay:10.37,2013-05-29 09:26:00,
2013-05-29 05:31:00,62.4,59.1,30.20,SSE,152,0.0,0.0,89,0.00,CLR,,0.00,WeatherDisplay:10.37,2013-05-29 09:31:00,
2013-05-29 05:36:00,62.3,59.0,30.20,SSE,152,0.0,0.0,89,0.00,CLR,,0.00,WeatherDisplay:10.37,2013-05-29 09:36:00,
2013-05-29 05:41:00,62.2,58.9,30.20,SSE,152,0.0,0.0,89,0.00,CLR,,0.00,WeatherDisplay:10.37,2013-05-29 09:41:00,
2013-05-29 05:47:00,62.0,58.7,30.20,SSE,152,0.0,0.0,89,0.00,CLR,,0.00,WeatherDisplay:10.37,2013-05-29 09:47:00,
2013-05-29 05:51:00,61.8,58.8,30.21,SSE,152,0.0,0.0,90,0.00,CLR,,0.00,WeatherDisplay:10.37,2013-05-29 09:51:00,
2013-05-29 05:56:00,61.6,58.6,30.21,SSE,152,0.0,0.0,90,0.00,CLR,,0.00,WeatherDisplay:10.37,2013-05-29 09:56:00,
2013-05-29 06:01:00,61.6,58.6,30.21,SSE,152,0.0,0.0,90,0.00,CLR,,0.00,WeatherDisplay:10.37,2013-05-29 10:01:00,
2013-05-29 06:06:00,61.6,58.6,30.21,SSE,152,0.0,0.0,90,0.00,CLR,,0.00,WeatherDisplay:10.37,2013-05-29 10:06:00,
2013-05-29 06:11:00,61.4,58.4,30.21,SSE,152,0.0,0.0,90,0.00,CLR,,0.00,WeatherDisplay:10.37,2013-05-29 10:11:00,
2013-05-29 06:17:00,61.2,58.2,30.21,SSE,152,0.0,0.0,90,0.00,CLR,,0.00,WeatherDisplay:10.37,2013-05-29 10:17:00,
2013-05-29 06:22:00,61.0,58.4,30.22,SSE,152,0.0,0.0,91,0.00,CLR,,0.00,WeatherDisplay:10.37,2013-05-29 10:22:00,
2013-05-29 06:27:00,60.8,58.2,30.21,SSE,152,0.0,0.0,91,0.00,CLR,,0.00,WeatherDisplay:10.37,2013-05-29 10:27:00,
2013-05-29 06:32:00,60.7,58.4,30.21,SSE,152,0.0,0.0,92,0.00,CLR,,0.00,WeatherDisplay:10.37,2013-05-29 10:32:00,
2013-05-29 06:36:00,60.6,58.0,30.21,SSE,152,0.0,0.0,91,0.00,CLR,,0.00,WeatherDisplay:10.37,2013-05-29 10:36:00,
2013-05-29 06:42:00,60.5,57.9,30.21,SSE,152,0.0,0.0,91,0.00,CLR,,0.00,WeatherDisplay:10.37,2013-05-29 10:42:00,
2013-05-29 06:47:00,60.3,57.7,30.22,SSE,152,0.0,0.0,91,0.00,CLR,,0.00,WeatherDisplay:10.37,2013-05-29 10:47:00,
2013-05-29 06:52:00,60.1,57.5,30.22,SSE,152,0.0,0.0,91,0.00,CLR,,0.00,WeatherDisplay:10.37,2013-05-29 10:52:00,
2013-05-29 06:57:00,59.9,57.6,30.22,SSE,152,0.0,0.0,92,0.00,CLR,,0.00,WeatherDisplay:10.37,2013-05-29 10:57:00,
2013-05-29 07:02:00,59.8,57.5,30.22,SSE,152,0.0,0.0,92,0.00,CLR,,0.00,WeatherDisplay:10.37,2013-05-29 11:02:00,
2013-05-29 07:07:00,59.8,57.5,30.22,SSE,152,0.0,0.0,92,0.00,CLR,,0.00,WeatherDisplay:10.37,2013-05-29 11:07:00,
2013-05-29 07:12:00,59.7,57.4,30.22,SSE,152,0.0,0.0,92,0.00,CLR,,0.00,WeatherDisplay:10.37,2013-05-29 11:12:00,
2013-05-29 07:17:00,59.6,57.3,30.23,SSE,152,0.0,0.0,92,0.00,CLR,,0.00,WeatherDisplay:10.37,2013-05-29 11:17:00,
2013-05-29 07:22:00,59.5,57.2,30.22,SSE,152,0.0,0.0,92,0.00,CLR,,0.00,WeatherDisplay:10.37,2013-05-29 11:22:00,
2013-05-29 07:27:00,59.3,57.0,30.23,SSE,152,0.0,0.0,92,0.00,CLR,,0.00,WeatherDisplay:10.37,2013-05-29 11:27:00,
2013-05-29 07:32:00,59.3,57.3,30.23,SSE,152,0.0,0.0,93,0.00,CLR,,0.00,WeatherDisplay:10.37,2013-05-29 11:32:00,
2013-05-29 07:37:00,59.3,57.3,30.22,SSE,152,0.0,0.0,93,0.00,CLR,,0.00,WeatherDisplay:10.37,2013-05-29 11:37:00,
2013-05-29 07:42:00,59.3,57.3,30.23,SSE,152,0.0,0.0,93,0.00,CLR,,0.00,WeatherDisplay:10.37,2013-05-29 11:42:00,
2013-05-29 07:47:00,59.3,57.6,30.23,SSE,152,0.0,0.0,94,0.00,CLR,,0.00,WeatherDisplay:10.37,2013-05-29 11:47:00,
2013-05-29 07:52:00,59.3,57.6,30.23,SSE,152,0.0,0.0,94,0.00,CLR,,0.00,WeatherDisplay:10.37,2013-05-29 11:52:00,
2013-05-29 07:57:00,59.4,57.7,30.23,SSE,152,0.0,0.0,94,0.00,CLR,,0.00,WeatherDisplay:10.37,2013-05-29 11:57:00,
2013-05-29 08:02:00,59.4,57.7,30.23,SSE,152,0.0,0.0,94,0.00,CLR,,0.00,WeatherDisplay:10.37,2013-05-29 12:02:00,
2013-05-29 08:07:00,59.4,57.7,30.23,SSE,152,0.0,0.0,94,0.00,CLR,,0.00,WeatherDisplay:10.37,2013-05-29 12:07:00,
2013-05-29 08:12:00,59.4,57.7,30.23,SSE,152,0.0,0.0,94,0.00,CLR,,0.00,WeatherDisplay:10.37,2013-05-29 12:12:00,
2013-05-29 08:17:00,59.5,57.8,30.24,SSE,152,0.0,0.0,94,0.00,CLR,,0.00,WeatherDisplay:10.37,2013-05-29 12:17:00,
2013-05-29 08:22:00,59.7,58.3,30.24,SSE,152,0.0,0.0,95,0.00,CLR,,0.00,WeatherDisplay:10.37,2013-05-29 12:22:00,
2013-05-29 08:27:00,59.9,58.5,30.24,SSE,152,0.0,0.0,95,0.00,CLR,,0.00,WeatherDisplay:10.37,2013-05-29 12:27:00,
2013-05-29 08:32:00,60.1,58.7,30.25,SSE,152,0.0,0.0,95,0.00,CLR,,0.00,WeatherDisplay:10.37,2013-05-29 12:32:00,
2013-05-29 08:37:00,60.3,58.9,30.25,SSE,153,0.0,0.1,95,0.00,CLR,,0.00,WeatherDisplay:10.37,2013-05-29 12:37:00,
2013-05-29 08:42:00,60.5,59.1,30.25,SSE,153,0.0,0.0,95,0.00,CLR,,0.00,WeatherDisplay:10.37,2013-05-29 12:42:00,
2013-05-29 08:47:00,60.7,59.3,30.25,SSE,153,0.0,0.0,95,0.00,CLR,,0.00,WeatherDisplay:10.37,2013-05-29 12:47:00,
2013-05-29 08:52:00,61.0,59.6,30.25,SSE,153,0.0,0.0,95,0.00,CLR,,0.00,WeatherDisplay:10.37,2013-05-29 12:52:00,
2013-05-29 08:57:00,61.3,59.6,30.25,SSE,153,0.0,0.0,94,0.00,CLR,,0.00,WeatherDisplay:10.37,2013-05-29 12:57:00,
2013-05-29 09:02:00,61.6,60.2,30.25,SSE,153,0.0,0.0,95,0.00,CLR,,0.00,WeatherDisplay:10.37,2013-05-29 13:02:00,
2013-05-29 09:07:00,61.7,60.0,30.25,SSE,153,0.0,0.0,94,0.00,CLR,,0.00,WeatherDisplay:10.37,2013-05-29 13:07:00,
2013-05-29 09:12:00,62.2,60.5,30.25,SSE,153,0.0,0.0,94,0.00,CLR,,0.00,WeatherDisplay:10.37,2013-05-29 13:12:00,
2013-05-29 09:17:00,62.6,60.5,30.25,SSE,153,0.0,0.0,93,0.00,CLR,,0.00,WeatherDisplay:10.37,2013-05-29 13:17:00,
2013-05-29 09:22:00,63.0,60.6,30.25,SSE,153,0.0,0.0,92,0.00,CLR,,0.00,WeatherDisplay:10.37,2013-05-29 13:22:00,
2013-05-29 09:27:00,63.4,61.0,30.25,SE,137,0.0,0.0,92,0.00,CLR,,0.00,WeatherDisplay:10.37,2013-05-29 13:27:00,
2013-05-29 09:32:00,63.8,61.4,30.25,SE,137,0.0,0.0,92,0.00,CLR,,0.00,WeatherDisplay:10.37,2013-05-29 13:32:00,
2013-05-29 09:37:00,64.2,61.5,30.25,SE,137,0.0,0.0,91,0.00,CLR,,0.00,WeatherDisplay:10.37,2013-05-29 13:37:00,
2013-05-29 09:42:00,64.6,61.9,30.25,SE,137,1.2,1.2,91,0.00,CLR,,0.00,WeatherDisplay:10.37,2013-05-29 13:42:00,
2013-05-29 09:47:00,64.9,61.9,30.25,SE,136,1.2,0.0,90,0.00,CLR,,0.00,WeatherDisplay:10.37,2013-05-29 13:47:00,
2013-05-29 09:52:00,65.2,61.9,30.25,SE,133,0.0,0.0,89,0.00,CLR,,0.00,WeatherDisplay:10.37,2013-05-29 13:52:00,
2013-05-29 09:57:00,65.5,61.9,30.25,SE,133,0.0,0.0,88,0.00,CLR,,0.00,WeatherDisplay:10.37,2013-05-29 13:57:00,
2013-05-29 10:02:00,65.8,61.8,30.25,SE,133,0.0,0.0,87,0.00,CLR,,0.00,WeatherDisplay:10.37,2013-05-29 14:02:00,
2013-05-29 10:07:00,66.4,62.4,30.25,East,89,0.0,0.0,87,0.00,CLR,,0.00,WeatherDisplay:10.37,2013-05-29 14:07:00,
2013-05-29 10:12:00,67.1,62.8,30.25,East,89,0.0,0.1,86,0.00,CLR,,0.00,WeatherDisplay:10.37,2013-05-29 14:12:00,
2013-05-29 10:17:00,67.7,62.3,30.25,East,87,0.0,0.0,83,0.00,CLR,,0.00,WeatherDisplay:10.37,2013-05-29 14:17:00,
2013-05-29 10:22:00,68.1,62.7,30.25,NNE,25,1.2,0.0,83,0.00,CLR,,0.00,WeatherDisplay:10.37,2013-05-29 14:22:00,
2013-05-29 10:27:00,68.4,63.0,30.25,NNE,25,0.0,0.0,83,0.00,CLR,,0.00,WeatherDisplay:10.37,2013-05-29 14:27:00,
2013-05-29 10:32:00,68.5,62.8,30.25,NNE,25,0.0,0.0,82,0.00,CLR,,0.00,WeatherDisplay:10.37,2013-05-29 14:32:00,
2013-05-29 10:37:00,68.6,62.9,30.25,NNE,25,1.2,0.0,82,0.00,CLR,,0.00,WeatherDisplay:10.37,2013-05-29 14:37:00,
2013-05-29 10:42:00,68.8,63.1,30.25,NNE,25,0.0,0.0,82,0.00,CLR,,0.00,WeatherDisplay:10.37,2013-05-29 14:42:00,
2013-05-29 10:47:00,69.0,62.9,30.25,NNE,25,0.0,0.0,81,0.00,CLR,,0.00,WeatherDisplay:10.37,2013-05-29 14:47:00,
2013-05-29 10:52:00,69.3,62.9,30.24,NNE,25,1.2,0.0,80,0.00,CLR,,0.00,WeatherDisplay:10.37,2013-05-29 14:52:00,
2013-05-29 10:57:00,69.5,62.7,30.24,NNE,25,0.0,0.0,79,0.00,CLR,,0.00,WeatherDisplay:10.37,2013-05-29 14:57:00,
2013-05-29 11:02:00,69.6,62.8,30.24,NNE,25,0.0,0.0,79,0.00,CLR,,0.00,WeatherDisplay:10.37,2013-05-29 15:02:00,
2013-05-29 11:07:00,69.6,62.8,30.25,NNE,25,0.0,0.0,79,0.00,CLR,,0.00,WeatherDisplay:10.37,2013-05-29 15:07:00,
2013-05-29 11:10:00,78.0,63.0,30.18,NNE,22,0.0,0.0,60,0.00,CLR,CLR,0.00,WeatherDisplay:10.37,2013-05-29 15:10:00,
2013-05-29 11:12:00,69.6,62.8,30.24,NNE,25,0.0,0.0,79,0.00,CLR,,0.00,WeatherDisplay:10.37,2013-05-29 15:12:00,
2013-05-29 11:17:00,69.7,62.9,30.24,NNE,25,0.0,0.0,79,0.00,CLR,,0.00,WeatherDisplay:10.37,2013-05-29 15:17:00,
2013-05-29 11:22:00,69.7,62.9,30.24,NNE,25,1.1,0.0,79,0.00,CLR,,0.00,WeatherDisplay:10.37,2013-05-29 15:22:00,
2013-05-29 11:27:00,69.7,62.9,30.24,NNE,25,0.0,0.0,79,0.00,CLR,,0.00,WeatherDisplay:10.37,2013-05-29 15:27:00,
2013-05-29 11:32:00,69.7,63.6,30.24,NNE,25,0.0,0.0,81,0.00,CLR,,0.00,WeatherDisplay:10.37,2013-05-29 15:32:00,
2013-05-29 11:37:00,69.8,63.0,30.24,South,175,4.6,4.6,79,0.00,CLR,,0.00,WeatherDisplay:10.37,2013-05-29 15:37:00,
2013-05-29 11:42:00,70.1,62.6,30.24,SSW,202,4.6,4.6,77,0.00,CLR,,0.00,WeatherDisplay:10.37,2013-05-29 15:42:00,
2013-05-29 11:47:00,70.3,62.4,30.24,South,183,4.6,4.6,76,0.00,CLR,,0.00,WeatherDisplay:10.37,2013-05-29 15:47:00,
2013-05-29 11:52:00,70.6,62.7,30.24,South,186,0.0,0.0,76,0.00,CLR,,0.00,WeatherDisplay:10.37,2013-05-29 15:52:00,
2013-05-29 11:57:00,70.9,63.3,30.24,WSW,256,0.0,0.0,77,0.00,CLR,,0.00,WeatherDisplay:10.37,2013-05-29 15:57:00,
2013-05-29 12:02:00,71.4,63.4,30.24,SSW,206,0.0,0.0,76,0.00,CLR,,0.00,WeatherDisplay:10.37,2013-05-29 16:02:00,
2013-05-29 12:05:00,78.7,65.5,30.17,East,87,0.0,0.0,64,0.00,CLR,CLR,0.00,WeatherDisplay:10.37,2013-05-29 16:05:00,
2013-05-29 12:07:00,72.0,63.6,30.24,SW,216,1.2,1.2,75,0.00,CLR,,0.00,WeatherDisplay:10.37,2013-05-29 16:07:00,
2013-05-29 12:12:00,72.6,63.8,30.24,SW,216,0.0,0.0,74,0.00,CLR,,0.00,WeatherDisplay:10.37,2013-05-29 16:12:00,
2013-05-29 12:17:00,73.3,63.7,30.24,SSW,213,0.0,0.0,72,0.00,CLR,,0.00,WeatherDisplay:10.37,2013-05-29 16:17:00,
2013-05-29 12:22:00,74.1,63.7,30.24,SW,214,0.0,0.0,70,0.00,CLR,,0.00,WeatherDisplay:10.37,2013-05-29 16:22:00,
2013-05-29 12:27:00,74.8,63.9,30.24,WSW,243,0.0,0.1,69,0.00,CLR,,0.00,WeatherDisplay:10.37,2013-05-29 16:27:00,
2013-05-29 12:32:00,75.3,64.4,30.23,WSW,243,0.0,0.0,69,0.00,CLR,,0.00,WeatherDisplay:10.37,2013-05-29 16:32:00,
2013-05-29 12:37:00,75.6,63.9,30.23,WSW,253,0.0,0.0,67,0.00,CLR,,0.00,WeatherDisplay:10.37,2013-05-29 16:37:00,
2013-05-29 12:42:00,76.0,65.1,30.23,SW,224,1.2,0.0,69,0.00,CLR,,0.00,WeatherDisplay:10.37,2013-05-29 16:42:00,
2013-05-29 12:47:00,76.5,65.1,30.23,WSW,245,0.0,0.1,68,0.00,CLR,,0.00,WeatherDisplay:10.37,2013-05-29 16:47:00,
2013-05-29 12:52:00,77.2,65.0,30.23,South,185,3.3,3.3,66,0.00,CLR,,0.00,WeatherDisplay:10.37,2013-05-29 16:52:00,
2013-05-29 12:57:00,78.0,66.2,30.22,SW,216,0.0,0.0,67,0.00,CLR,,0.00,WeatherDisplay:10.37,2013-05-29 16:57:00,
2013-05-29 13:02:00,78.8,66.0,30.22,SW,216,0.0,0.1,65,0.00,CLR,,0.00,WeatherDisplay:10.37,2013-05-29 17:02:00,
2013-05-29 13:07:00,79.5,65.8,30.23,SW,227,0.0,0.3,63,0.00,CLR,,0.00,WeatherDisplay:10.37,2013-05-29 17:07:00,
2013-05-29 13:13:00,80.0,64.4,30.22,SW,227,0.0,0.2,59,0.00,CLR,,0.00,WeatherDisplay:10.37,2013-05-29 17:13:00,
2013-05-29 13:17:00,80.5,64.9,30.22,SW,230,1.2,0.0,59,0.00,CLR,,0.00,WeatherDisplay:10.37,2013-05-29 17:17:00,
2013-05-29 13:23:00,81.0,64.8,30.22,SW,227,0.0,0.0,58,0.00,CLR,,0.00,WeatherDisplay:10.37,2013-05-29 17:23:00,
2013-05-29 13:27:00,81.3,65.1,30.22,SW,214,0.0,0.0,58,0.00,CLR,,0.00,WeatherDisplay:10.37,2013-05-29 17:27:00,
2013-05-29 13:32:00,81.0,65.8,30.22,SW,214,0.0,0.1,60,0.00,CLR,,0.00,WeatherDisplay:10.37,2013-05-29 17:32:00,
2013-05-29 13:37:00,80.8,65.6,30.22,SSW,201,0.0,0.0,60,0.00,CLR,,0.00,WeatherDisplay:10.37,2013-05-29 17:37:00,
2013-05-29 13:42:00,80.8,64.6,30.22,West,271,1.2,0.0,58,0.00,CLR,,0.00,WeatherDisplay:10.37,2013-05-29 17:42:00,
2013-05-29 13:47:00,80.9,65.7,30.21,SSE,166,0.0,0.0,60,0.00,CLR,,0.00,WeatherDisplay:10.37,2013-05-29 17:47:00,
2013-05-29 13:52:00,81.0,65.3,30.21,WSW,241,6.9,6.9,59,0.00,CLR,,0.00,WeatherDisplay:10.37,2013-05-29 17:52:00,
2013-05-29 13:58:00,80.9,64.7,30.21,South,189,2.3,2.3,58,0.00,CLR,,0.00,WeatherDisplay:10.37,2013-05-29 17:58:00,
2013-05-29 14:03:00,80.8,64.6,30.21,SSW,199,4.6,4.6,58,0.00,CLR,,0.00,WeatherDisplay:10.37,2013-05-29 18:03:00,
2013-05-29 14:08:00,80.8,64.6,30.20,SSW,200,1.2,0.0,58,0.00,CLR,,0.00,WeatherDisplay:10.37,2013-05-29 18:08:00,
2013-05-29 14:13:00,81.0,65.3,30.20,SSW,200,0.0,0.0,59,0.00,CLR,,0.00,WeatherDisplay:10.37,2013-05-29 18:13:00,
2013-05-29 14:19:00,81.3,64.6,30.20,SW,214,0.0,0.1,57,0.00,CLR,,0.00,WeatherDisplay:10.37,2013-05-29 18:19:00,
2013-05-29 14:24:00,81.3,64.1,30.20,SW,214,0.0,0.0,56,0.00,CLR,,0.00,WeatherDisplay:10.37,2013-05-29 18:24:00,
2013-05-29 15:21:00,77.5,63.0,30.18,East,81,0.0,0.0,61,0.00,CLR,,0.00,WeatherDisplay:10.37,2013-05-29 19:21:00,
2013-05-29 15:26:00,77.4,63.4,30.18,East,81,0.0,0.0,62,0.00,CLR,,0.00,WeatherDisplay:10.37,2013-05-29 19:26:00,
2013-05-29 15:31:00,77.3,63.7,30.18,East,81,1.2,0.0,63,0.00,CLR,,0.00,WeatherDisplay:10.37,2013-05-29 19:31:00,
2013-05-29 15:36:00,77.3,64.2,30.18,East,81,0.0,0.0,64,0.00,CLR,,0.00,WeatherDisplay:10.37,2013-05-29 19:36:00,
2013-05-29 15:41:00,77.4,64.3,30.18,East,81,0.0,0.0,64,0.00,CLR,,0.00,WeatherDisplay:10.37,2013-05-29 19:41:00,
2013-05-29 15:46:00,77.6,64.9,30.17,East,81,0.0,0.0,65,0.00,CLR,,0.00,WeatherDisplay:10.37,2013-05-29 19:46:00,
2013-05-29 15:51:00,77.9,67.7,30.17,East,81,0.0,0.0,71,0.00,CLR,,0.00,WeatherDisplay:10.37,2013-05-29 19:51:00,
2013-05-29 15:56:00,78.2,64.6,30.17,East,81,0.0,0.0,63,0.00,CLR,,0.00,WeatherDisplay:10.37,2013-05-29 19:56:00,
2013-05-29 16:11:00,78.8,63.7,30.17,NNE,23,1.2,1.2,60,0.00,CLR,,0.00,WeatherDisplay:10.37,2013-05-29 20:11:00,
2013-05-29 16:16:00,78.9,64.8,30.17,North,3,0.0,0.0,62,0.00,CLR,,0.00,WeatherDisplay:10.37,2013-05-29 20:16:00,
2013-05-29 16:21:00,79.0,63.9,30.16,North,3,0.0,0.0,60,0.00,CLR,,0.00,WeatherDisplay:10.37,2013-05-29 20:21:00,
2013-05-29 16:26:00,79.2,62.7,30.16,NW,304,2.2,2.2,57,0.00,CLR,,0.00,WeatherDisplay:10.37,2013-05-29 20:26:00,
2013-05-29 16:31:00,79.5,62.9,30.16,WSW,252,0.0,0.0,57,0.00,CLR,,0.00,WeatherDisplay:10.37,2013-05-29 20:31:00,
2013-05-29 16:36:00,79.9,60.7,30.16,SSW,198,6.9,6.9,52,0.00,CLR,,0.00,WeatherDisplay:10.37,2013-05-29 20:36:00,
2013-05-29 16:41:00,80.1,59.8,30.16,SW,216,1.2,1.2,50,0.00,CLR,,0.00,WeatherDisplay:10.37,2013-05-29 20:41:00,
2013-05-29 16:46:00,80.4,59.5,30.16,WSW,253,6.9,6.9,49,0.00,CLR,,0.00,WeatherDisplay:10.37,2013-05-29 20:46:00,
2013-05-29 16:51:00,80.7,60.9,30.16,WSW,243,2.3,2.3,51,0.00,CLR,,0.00,WeatherDisplay:10.37,2013-05-29 20:51:00,
2013-05-29 16:56:00,81.0,61.7,30.15,West,265,1.2,1.2,52,0.00,CLR,,0.00,WeatherDisplay:10.37,2013-05-29 20:56:00,
2013-05-29 17:01:00,81.2,60.2,30.16,WSW,249,1.2,1.2,49,0.00,CLR,,0.00,WeatherDisplay:10.37,2013-05-29 21:01:00,
2013-05-29 17:06:00,81.3,60.3,30.16,South,173,1.2,1.2,49,0.00,CLR,,0.00,WeatherDisplay:10.37,2013-05-29 21:06:00,
2013-05-29 17:11:00,81.4,61.0,30.16,WSW,243,9.2,9.2,50,0.00,CLR,,0.00,WeatherDisplay:10.37,2013-05-29 21:11:00,
2013-05-29 17:16:00,81.5,61.1,30.16,South,173,3.5,3.5,50,0.00,CLR,,0.00,WeatherDisplay:10.37,2013-05-29 21:16:00,
2013-05-29 17:21:00,81.5,61.1,30.16,SW,216,1.2,0.0,50,0.00,CLR,,0.00,WeatherDisplay:10.37,2013-05-29 21:21:00,
2013-05-29 17:26:00,81.5,58.7,30.15,SW,233,3.5,3.5,46,0.00,CLR,,0.00,WeatherDisplay:10.37,2013-05-29 21:26:00,
2013-05-29 17:31:00,81.5,59.3,30.16,SE,137,4.6,4.6,47,0.00,CLR,,0.00,WeatherDisplay:10.37,2013-05-29 21:31:00,
2013-05-29 17:36:00,81.4,59.2,30.16,SW,229,6.9,6.9,47,0.00,CLR,,0.00,WeatherDisplay:10.37,2013-05-29 21:36:00,
2013-05-29 17:41:00,81.3,59.1,30.16,SSW,194,10.4,10.4,47,0.00,CLR,,0.00,WeatherDisplay:10.37,2013-05-29 21:41:00,
2013-05-29 17:46:00,81.3,59.1,30.16,WSW,258,9.2,9.2,47,0.00,CLR,,0.00,WeatherDisplay:10.37,2013-05-29 21:46:00,
2013-05-29 17:51:00,81.1,59.0,30.16,SSE,157,5.8,0.0,47,0.00,CLR,,0.00,WeatherDisplay:10.37,2013-05-29 21:51:00,
2013-05-29 17:56:00,81.0,61.7,30.17,SW,222,5.8,5.8,52,0.00,CLR,,0.00,WeatherDisplay:10.37,2013-05-29 21:56:00,
2013-05-29 18:01:00,80.8,60.4,30.16,WSW,237,1.3,0.0,50,0.00,CLR,,0.00,WeatherDisplay:10.37,2013-05-29 22:01:00,
2013-05-29 18:06:00,80.8,60.4,30.16,WSW,237,1.2,1.2,50,0.00,CLR,,0.00,WeatherDisplay:10.37,2013-05-29 22:06:00,
2013-05-29 18:11:00,80.6,60.2,30.17,South,189,8.1,8.1,50,0.00,CLR,,0.00,WeatherDisplay:10.37,2013-05-29 22:11:00,
2013-05-29 18:16:00,80.5,57.8,30.17,SW,218,8.1,8.1,46,0.00,CLR,,0.00,WeatherDisplay:10.37,2013-05-29 22:16:00,
2013-05-29 18:21:00,80.3,58.8,30.17,South,180,10.4,10.4,48,0.00,CLR,,0.00,WeatherDisplay:10.37,2013-05-29 22:21:00,
2013-05-29 18:26:00,80.1,58.6,30.17,SW,219,5.8,5.8,48,0.00,CLR,,0.00,WeatherDisplay:10.37,2013-05-29 22:26:00,
2013-05-29 18:31:00,79.9,58.5,30.17,South,181,4.6,4.6,48,0.00,CLR,,0.00,WeatherDisplay:10.37,2013-05-29 22:31:00,
2013-05-29 18:36:00,79.8,60.1,30.17,South,187,1.2,1.2,51,0.00,CLR,,0.00,WeatherDisplay:10.37,2013-05-29 22:36:00,
2013-05-29 18:41:00,79.7,60.0,30.17,SSE,148,1.2,1.2,51,0.00,CLR,,0.00,WeatherDisplay:10.37,2013-05-29 22:41:00,
2013-05-29 18:46:00,79.5,58.7,30.17,SSW,196,6.5,6.5,49,0.00,CLR,,0.00,WeatherDisplay:10.37,2013-05-29 22:46:00,
2013-05-29 18:51:00,79.3,58.5,30.17,SW,232,6.9,6.9,49,0.00,CLR,,0.00,WeatherDisplay:10.37,2013-05-29 22:51:00,
2013-05-29 18:56:00,79.2,59.0,30.17,WSW,245,8.1,8.1,50,0.00,CLR,,0.00,WeatherDisplay:10.37,2013-05-29 22:56:00,
2013-05-29 19:01:00,79.0,58.8,30.16,SW,223,10.4,10.4,50,0.00,CLR,,0.00,WeatherDisplay:10.37,2013-05-29 23:01:00,
2013-05-29 19:06:00,78.7,59.0,30.16,SSW,199,9.2,9.2,51,0.00,CLR,,0.00,WeatherDisplay:10.37,2013-05-29 23:06:00,
2013-05-29 19:11:00,78.5,58.9,30.16,SW,227,2.3,2.3,51,0.00,CLR,,0.00,WeatherDisplay:10.37,2013-05-29 23:11:00,
2013-05-29 19:16:00,78.3,58.7,30.16,WSW,250,4.6,4.6,51,0.00,CLR,,0.00,WeatherDisplay:10.37,2013-05-29 23:16:00,
2013-05-29 19:21:00,78.1,58.5,30.17,SSE,157,10.4,10.4,51,0.00,CLR,,0.00,WeatherDisplay:10.37,2013-05-29 23:21:00,
2013-05-29 19:26:00,77.9,58.9,30.17,SSE,168,8.7,8.7,52,0.00,CLR,,0.00,WeatherDisplay:10.37,2013-05-29 23:26:00,
2013-05-29 19:31:00,77.7,58.1,30.17,SSW,193,10.4,10.4,51,0.00,CLR,,0.00,WeatherDisplay:10.37,2013-05-29 23:31:00,
2013-05-29 19:36:00,77.4,58.4,30.17,SW,218,8.1,8.1,52,0.00,CLR,,0.00,WeatherDisplay:10.37,2013-05-29 23:36:00,
2013-05-29 19:41:00,77.2,57.7,30.17,South,185,8.1,8.1,51,0.00,CLR,,0.00,WeatherDisplay:10.37,2013-05-29 23:41:00,
2013-05-29 19:46:00,77.0,58.0,30.18,SSW,208,1.2,1.2,52,0.00,CLR,,0.00,WeatherDisplay:10.37,2013-05-29 23:46:00,
2013-05-29 19:51:00,76.7,57.2,30.18,SSW,204,8.1,8.1,51,0.00,CLR,,0.00,WeatherDisplay:10.37,2013-05-29 23:51:00,
2013-05-29 19:56:00,76.5,57.6,30.18,SSW,199,3.5,3.5,52,0.00,CLR,,0.00,WeatherDisplay:10.37,2013-05-29 23:56:00,
2013-05-29 20:01:00,76.3,57.4,30.18,SSW,206,5.8,5.8,52,0.00,CLR,,0.00,WeatherDisplay:10.37,2013-05-30 00:01:00,
2013-05-29 20:06:00,76.0,58.2,30.18,SSW,196,6.9,6.9,54,0.00,CLR,,0.00,WeatherDisplay:10.37,2013-05-30 00:06:00,
2013-05-29 20:11:00,75.8,58.5,30.18,WSW,238,3.5,3.5,55,0.00,CLR,,0.00,WeatherDisplay:10.37,2013-05-30 00:11:00,
2013-05-29 20:16:00,75.5,58.7,30.18,SSW,192,10.4,10.4,56,0.00,CLR,,0.00,WeatherDisplay:10.37,2013-05-30 00:16:00,
2013-05-29 20:21:00,75.2,58.9,30.18,SSW,210,11.5,11.5,57,0.00,CLR,,0.00,WeatherDisplay:10.37,2013-05-30 00:21:00,
2013-05-29 20:26:00,74.9,59.1,30.19,South,188,6.9,6.9,58,0.00,CLR,,0.00,WeatherDisplay:10.37,2013-05-30 00:26:00,
2013-05-29 20:31:00,74.6,59.3,30.19,SSW,198,15.0,15.0,59,0.00,CLR,,0.00,WeatherDisplay:10.37,2013-05-30 00:31:00,
2013-05-29 20:36:00,74.2,59.4,30.19,SSW,196,5.8,5.8,60,0.00,CLR,,0.00,WeatherDisplay:10.37,2013-05-30 00:36:00,
2013-05-29 20:41:00,73.9,59.6,30.19,SSW,206,9.2,9.2,61,0.00,CLR,,0.00,WeatherDisplay:10.37,2013-05-30 00:41:00,
2013-05-29 20:46:00,73.5,59.2,30.19,South,182,9.2,9.2,61,0.00,CLR,,0.00,WeatherDisplay:10.37,2013-05-30 00:46:00,
2013-05-29 20:51:00,73.2,59.4,30.19,SE,132,5.8,5.8,62,0.00,CLR,,0.00,WeatherDisplay:10.37,2013-05-30 00:51:00,
2013-05-29 20:56:00,72.9,59.6,30.19,South,177,6.5,6.5,63,0.00,CLR,,0.00,WeatherDisplay:10.37,2013-05-30 00:56:00,
2013-05-29 21:01:00,72.7,59.4,30.19,South,176,8.1,8.1,63,0.00,CLR,,0.00,WeatherDisplay:10.37,2013-05-30 01:01:00,
2013-05-29 21:06:00,72.4,60.0,30.19,SSW,198,5.8,5.8,65,0.00,CLR,,0.00,WeatherDisplay:10.37,2013-05-30 01:06:00,
2013-05-29 21:11:00,72.2,59.8,30.19,SSW,193,3.5,3.5,65,0.00,CLR,,0.00,WeatherDisplay:10.37,2013-05-30 01:11:00,
2013-05-29 21:16:00,71.9,59.9,30.19,SSW,195,1.2,0.0,66,0.00,CLR,,0.00,WeatherDisplay:10.37,2013-05-30 01:16:00,
2013-05-29 21:21:00,71.6,60.1,30.19,South,191,6.9,6.9,67,0.00,CLR,,0.00,WeatherDisplay:10.37,2013-05-30 01:21:00,
2013-05-29 21:26:00,71.4,60.3,30.19,South,189,1.2,0.0,68,0.00,CLR,,0.00,WeatherDisplay:10.37,2013-05-30 01:26:00,
2013-05-29 21:31:00,71.1,60.0,30.20,SSW,206,3.5,3.5,68,0.00,CLR,,0.00,WeatherDisplay:10.37,2013-05-30 01:31:00,
2013-05-29 21:36:00,70.9,60.2,30.20,SW,236,2.3,2.3,69,0.00,CLR,,0.00,WeatherDisplay:10.37,2013-05-30 01:36:00,
2013-05-29 21:41:00,70.7,60.4,30.20,South,191,3.5,3.5,70,0.00,CLR,,0.00,WeatherDisplay:10.37,2013-05-30 01:41:00,
2013-05-29 21:46:00,70.5,60.6,30.20,South,182,3.5,3.5,71,0.00,CLR,,0.00,WeatherDisplay:10.37,2013-05-30 01:46:00,
2013-05-29 21:51:00,70.3,60.8,30.20,South,190,6.9,6.9,72,0.00,CLR,,0.00,WeatherDisplay:10.37,2013-05-30 01:51:00,
2013-05-29 21:56:00,70.1,61.0,30.20,South,188,8.1,8.1,73,0.00,CLR,,0.00,WeatherDisplay:10.37,2013-05-30 01:56:00,
2013-05-29 22:01:00,70.0,61.3,30.21,South,187,4.6,4.6,74,0.00,CLR,,0.00,WeatherDisplay:10.37,2013-05-30 02:01:00,
2013-05-29 22:07:00,69.8,61.1,30.20,South,173,0.0,0.0,74,0.00,CLR,,0.00,WeatherDisplay:10.37,2013-05-30 02:07:00,
2013-05-29 22:12:00,69.5,61.2,30.21,SE,146,0.0,0.0,75,0.00,CLR,,0.00,WeatherDisplay:10.37,2013-05-30 02:12:00,
2013-05-29 22:17:00,69.3,61.0,30.21,SE,132,2.2,2.2,75,0.00,CLR,,0.00,WeatherDisplay:10.37,2013-05-30 02:17:00,
2013-05-29 22:22:00,69.2,61.3,30.21,SE,137,0.0,0.0,76,0.00,CLR,,0.00,WeatherDisplay:10.37,2013-05-30 02:22:00,
2013-05-29 22:27:00,69.0,61.1,30.21,SE,137,0.0,0.0,76,0.00,CLR,,0.00,WeatherDisplay:10.37,2013-05-30 02:27:00,
2013-05-29 22:32:00,68.8,61.3,30.21,SE,137,0.0,0.0,77,0.00,CLR,,0.00,WeatherDisplay:10.37,2013-05-30 02:32:00,
2013-05-29 22:37:00,68.7,61.2,30.21,SE,137,1.2,0.0,77,0.00,CLR,,0.00,WeatherDisplay:10.37,2013-05-30 02:37:00,
2013-05-29 22:42:00,68.6,61.1,30.21,SE,137,1.2,0.0,77,0.00,CLR,,0.00,WeatherDisplay:10.37,2013-05-30 02:42:00,
2013-05-29 22:47:00,68.5,61.4,30.21,SE,137,0.0,0.0,78,0.00,CLR,,0.00,WeatherDisplay:10.37,2013-05-30 02:47:00,
2013-05-29 22:52:00,68.4,61.3,30.21,SE,137,0.0,0.0,78,0.00,CLR,,0.00,WeatherDisplay:10.37,2013-05-30 02:52:00,
2013-05-29 22:57:00,68.1,61.0,30.21,SE,137,1.2,0.0,78,0.00,CLR,,0.00,WeatherDisplay:10.37,2013-05-30 02:57:00,
2013-05-29 23:02:00,67.8,61.0,30.21,SE,137,0.0,0.0,79,0.00,CLR,,0.00,WeatherDisplay:10.37,2013-05-30 03:02:00,
2013-05-29 23:07:00,67.6,60.9,30.21,SE,137,0.0,0.0,79,0.00,CLR,,0.00,WeatherDisplay:10.37,2013-05-30 03:07:00,
2013-05-29 23:12:00,67.5,60.8,30.21,SE,137,0.0,0.0,79,0.00,CLR,,0.00,WeatherDisplay:10.37,2013-05-30 03:12:00,
2013-05-29 23:17:00,67.4,60.7,30.21,SE,137,0.0,0.0,79,0.00,CLR,,0.00,WeatherDisplay:10.37,2013-05-30 03:17:00,
2013-05-29 23:22:00,67.3,60.9,30.21,SE,137,0.0,0.0,80,0.00,CLR,,0.00,WeatherDisplay:10.37,2013-05-30 03:22:00,
2013-05-29 23:27:00,67.1,60.7,30.21,SE,137,0.0,0.0,80,0.00,CLR,,0.00,WeatherDisplay:10.37,2013-05-30 03:27:00,
2013-05-29 23:32:00,67.0,60.6,30.21,SE,137,0.0,0.0,80,0.00,CLR,,0.00,WeatherDisplay:10.37,2013-05-30 03:32:00,
2013-05-29 23:37:00,66.8,60.8,30.21,SE,137,0.0,0.0,81,0.00,CLR,,0.00,WeatherDisplay:10.37,2013-05-30 03:37:00,
2013-05-29 23:42:00,66.5,60.5,30.21,SE,137,0.0,0.0,81,0.00,CLR,,0.00,WeatherDisplay:10.37,2013-05-30 03:42:00,
2013-05-29 23:47:00,66.2,60.2,30.21,SE,137,0.0,0.0,81,0.00,CLR,,0.00,WeatherDisplay:10.37,2013-05-30 03:47:00,
2013-05-29 23:52:00,66.0,60.3,30.21,SE,137,0.0,0.0,82,0.00,CLR,,0.00,WeatherDisplay:10.37,2013-05-30 03:52:00,
2013-05-29 23:57:00,65.8,60.2,30.21,SE,137,0.0,0.0,82,0.00,CLR,,0.00,WeatherDisplay:10.37,2013-05-30 03:57:00,